createdAt,value
2022-08-08T00:00:56.012Z,18.2
2022-08-08T00:02:36.023Z,18.2
2022-08-08T00:04:36.838Z,18
2022-08-08T00:06:41.896Z,18
2022-08-08T00:08:35.979Z,18
2022-08-08T00:10:38.308Z,18
2022-08-08T00:12:36.573Z,18
2022-08-08T00:14:57.461Z,18
2022-08-08T00:16:38.623Z,17.9
2022-08-08T00:18:42.502Z,17.9
2022-08-08T00:20:42.033Z,18.1
2022-08-08T00:22:39.678Z,18.1
2022-08-08T00:24:36.498Z,18.1
2022-08-08T00:26:41.013Z,18
2022-08-08T00:28:39.747Z,18
2022-08-08T00:30:37.382Z,18
2022-08-08T00:32:40.375Z,18
2022-08-08T00:34:57.038Z,18
2022-08-08T00:36:42.962Z,17.9
2022-08-08T00:38:54.631Z,17.9
2022-08-08T00:41:07.521Z,17.9
2022-08-08T00:42:55.954Z,17.9
2022-08-08T00:45:02.961Z,18.1
2022-08-08T00:47:14.175Z,18.1
2022-08-08T00:49:05.182Z,18.1
2022-08-08T00:51:11.130Z,18.2
2022-08-08T00:52:51.641Z,18.2
2022-08-08T00:55:03.577Z,18.2
2022-08-08T00:57:12.837Z,18.2
2022-08-08T00:59:11.641Z,18.2
2022-08-08T01:00:50.426Z,18.2
2022-08-08T01:03:58.733Z,18.2
2022-08-08T01:05:29.195Z,18.2
2022-08-08T01:07:08.692Z,18.2
2022-08-08T01:09:35.830Z,18.2
2022-08-08T01:11:09.952Z,18.1
2022-08-08T01:13:01.410Z,18.1
2022-08-08T01:15:11.837Z,18.1
2022-08-08T01:17:08.280Z,18.1
2022-08-08T01:19:11.664Z,18.1
2022-08-08T01:20:56.282Z,18.1
2022-08-08T01:24:03.278Z,18.1
2022-08-08T01:25:14.232Z,18.1
2022-08-08T01:27:02.461Z,18.1
2022-08-08T01:29:05.794Z,18.1
2022-08-08T01:32:02.683Z,18.1
2022-08-08T01:33:24.288Z,18.1
2022-08-08T01:35:16.228Z,18.1
2022-08-08T01:37:17.475Z,18.2
2022-08-08T01:39:08.601Z,18.2
2022-08-08T01:40:57.053Z,18.2
2022-08-08T01:42:53.008Z,18.2
2022-08-08T01:45:09.823Z,18.2
2022-08-08T01:48:14.588Z,18.3
2022-08-08T01:48:59.788Z,18.3
2022-08-08T01:51:02.204Z,18.3
2022-08-08T01:55:15.006Z,18.1
2022-08-08T01:55:45.243Z,18.2
2022-08-08T01:57:03.694Z,18.2
2022-08-08T01:59:13.938Z,18.2
2022-08-08T02:00:58.187Z,18.2
2022-08-08T02:03:54.628Z,18.2
2022-08-08T02:04:57.412Z,18.2
2022-08-08T02:07:00.800Z,18.3
2022-08-08T02:09:00.227Z,18.4
2022-08-08T02:11:02.339Z,18.4
2022-08-08T02:12:55.328Z,18.3
2022-08-08T02:14:59.660Z,18.3
2022-08-08T02:17:03.179Z,18.3
2022-08-08T02:18:58.864Z,18.3
2022-08-08T02:21:00.178Z,18.4
2022-08-08T02:23:01.472Z,18.4
2022-08-08T02:24:58.798Z,18.4
2022-08-08T02:27:00.854Z,18.3
2022-08-08T02:29:07.950Z,18.3
2022-08-08T02:31:04.684Z,18.3
2022-08-08T02:33:09.405Z,18.3
2022-08-08T02:35:24.063Z,18.3
2022-08-08T02:37:05.427Z,18.3
2022-08-08T02:39:02.908Z,18.3
2022-08-08T02:42:04.166Z,18.3
2022-08-08T02:44:38.393Z,18.3
2022-08-08T02:45:18.581Z,18.3
2022-08-08T02:47:16.894Z,18.4
2022-08-08T02:49:47.491Z,18.4
2022-08-08T02:51:30.526Z,18.3
2022-08-08T02:53:14.509Z,18.4
2022-08-08T02:55:22.995Z,18.4
2022-08-08T02:57:26.622Z,18.4
2022-08-08T02:59:57.659Z,18.4
2022-08-08T03:01:32.711Z,18.4
2022-08-08T03:03:46.325Z,18.4
2022-08-08T03:05:21.114Z,18.4
2022-08-08T03:07:41.225Z,18.5
2022-08-08T03:09:33.942Z,18.5
2022-08-08T03:12:01.576Z,18.5
2022-08-08T03:15:53.822Z,18.5
2022-08-08T03:15:57.091Z,18.5
2022-08-08T03:17:07.084Z,18.5
2022-08-08T03:19:24.220Z,18.3
2022-08-08T03:21:10.214Z,18.3
2022-08-08T03:23:04.904Z,18.3
2022-08-08T03:25:14.905Z,18.3
2022-08-08T03:27:09.676Z,18.2
2022-08-08T03:29:18.650Z,18.1
2022-08-08T03:31:22.578Z,18.1
2022-08-08T03:33:07.941Z,18
2022-08-08T03:35:05.838Z,18
2022-08-08T03:37:20.188Z,17.9
2022-08-08T03:39:15.321Z,17.9
2022-08-08T03:41:32.166Z,17.9
2022-08-08T03:43:16.555Z,17.9
2022-08-08T03:46:04.827Z,17.9
2022-08-08T03:47:14.200Z,17.9
2022-08-08T03:49:57.676Z,18
2022-08-08T03:51:07.531Z,17.9
2022-08-08T03:53:10.695Z,17.9
2022-08-08T03:55:19.972Z,17.9
2022-08-08T03:58:30.142Z,18
2022-08-08T03:59:08.937Z,18
2022-08-08T04:01:35.552Z,18
2022-08-08T04:03:11.556Z,18
2022-08-08T04:05:10.545Z,18
2022-08-08T04:07:11.525Z,18.1
2022-08-08T04:09:16.606Z,18.1
2022-08-08T04:11:17.280Z,17.9
2022-08-08T04:13:18.071Z,17.9
2022-08-08T04:15:12.118Z,18
2022-08-08T04:17:22.722Z,18
2022-08-08T04:19:23.715Z,18
2022-08-08T04:21:13.402Z,18.1
2022-08-08T04:23:13.313Z,18.3
2022-08-08T04:25:15.473Z,18.3
2022-08-08T04:27:19.711Z,18.4
2022-08-08T04:29:15.108Z,18.6
2022-08-08T04:31:30.722Z,18.4
2022-08-08T04:33:15.440Z,18.4
2022-08-08T04:35:16.299Z,18.5
2022-08-08T04:37:16.084Z,18.5
2022-08-08T04:40:05.372Z,18.6
2022-08-08T04:41:17.843Z,18.8
2022-08-08T04:43:19.974Z,18.7
2022-08-08T04:45:17.351Z,18.5
2022-08-08T04:47:17.871Z,18.5
2022-08-08T04:49:17.710Z,18.5
2022-08-08T04:51:27.953Z,18.5
2022-08-08T04:54:36.302Z,18.5
2022-08-08T04:55:19.321Z,18.5
2022-08-08T04:57:19.283Z,18.6
2022-08-08T04:59:19.785Z,18.3
2022-08-08T05:01:22.100Z,18.5
2022-08-08T05:04:10.409Z,18.5
2022-08-08T05:05:44.283Z,18.3
2022-08-08T05:07:21.211Z,18.4
2022-08-08T05:09:21.637Z,18.5
2022-08-08T05:11:24.602Z,18.5
2022-08-08T05:13:22.173Z,18.5
2022-08-08T05:15:22.707Z,18.5
2022-08-08T05:17:22.931Z,18.3
2022-08-08T05:20:12.537Z,18.3
2022-08-08T05:21:23.904Z,18.3
2022-08-08T05:23:25.299Z,18.3
2022-08-08T05:25:24.392Z,18.3
2022-08-08T05:27:25.967Z,18.4
2022-08-08T05:29:29.025Z,18.5
2022-08-08T05:32:04.186Z,18.5
2022-08-08T05:33:25.904Z,18.6
2022-08-08T05:35:30.066Z,18.6
2022-08-08T05:37:28.430Z,18.7
2022-08-08T05:39:28.609Z,18.7
2022-08-08T05:41:30.497Z,18.3
2022-08-08T05:43:39.305Z,18.3
2022-08-08T05:45:41.357Z,18.3
2022-08-08T05:47:29.877Z,18.2
2022-08-08T05:49:28.947Z,18.2
2022-08-08T05:51:48.051Z,18
2022-08-08T05:54:24.656Z,18
2022-08-08T05:56:11.550Z,17.9
2022-08-08T05:58:03.783Z,17.9
2022-08-08T05:59:59.218Z,17.9
2022-08-08T06:01:56.294Z,17.9
2022-08-08T06:03:33.812Z,17.9
2022-08-08T06:05:36.193Z,17.9
2022-08-08T06:07:32.915Z,18
2022-08-08T06:09:58.894Z,18
2022-08-08T06:11:33.247Z,18.1
2022-08-08T06:13:36.168Z,17.9
2022-08-08T06:15:50.864Z,17.9
2022-08-08T06:17:51.054Z,18.1
2022-08-08T06:19:35.391Z,18.1
2022-08-08T06:21:48.963Z,17.9
2022-08-08T06:23:48.963Z,17.8
2022-08-08T06:26:43.360Z,18.1
2022-08-08T06:27:43.723Z,18.3
2022-08-08T06:29:56.791Z,18.3
2022-08-08T06:31:52.797Z,18.3
2022-08-08T06:34:25.035Z,18.3
2022-08-08T06:36:09.295Z,18.1
2022-08-08T06:37:44.522Z,18.1
2022-08-08T06:39:56.054Z,18.1
2022-08-08T06:41:42.360Z,18.1
2022-08-08T06:43:56.870Z,18.1
2022-08-08T06:45:40.019Z,18.1
2022-08-08T06:47:58.181Z,17.9
2022-08-08T06:49:55.158Z,18
2022-08-08T06:51:52.500Z,18
2022-08-08T06:53:50.745Z,18
2022-08-08T06:55:41.768Z,18
2022-08-08T06:57:44.024Z,18
2022-08-08T07:00:10.191Z,18.2
2022-08-08T07:02:16.738Z,18.5
2022-08-08T07:04:35.505Z,18.7
2022-08-08T07:06:01.689Z,18.8
2022-08-08T07:07:57.366Z,18.8
2022-08-08T07:09:59.999Z,18.8
2022-08-08T07:11:51.395Z,18.7
2022-08-08T07:14:00.576Z,18.4
2022-08-08T07:16:04.443Z,18.4
2022-08-08T07:18:01.680Z,18.3
2022-08-08T07:19:59.708Z,18.3
2022-08-08T07:21:53.239Z,18.3
2022-08-08T07:24:02.017Z,18.4
2022-08-08T07:25:54.684Z,18.4
2022-08-08T07:28:07.833Z,18.3
2022-08-08T07:30:00.461Z,18.7
2022-08-08T07:31:46.765Z,18.8
2022-08-08T07:33:53.260Z,18.8
2022-08-08T07:35:47.134Z,18.5
2022-08-08T07:38:05.068Z,18.5
2022-08-08T07:39:57.965Z,18.6
2022-08-08T07:42:04.319Z,19.3
2022-08-08T07:43:51.466Z,19.9
2022-08-08T07:46:05.487Z,20
2022-08-08T07:47:51.627Z,19.9
2022-08-08T07:49:49.491Z,19.5
2022-08-08T07:51:53.611Z,19.5
2022-08-08T07:54:03.515Z,19.4
2022-08-08T07:55:53.776Z,19.2
2022-08-08T07:58:00.434Z,19
2022-08-08T07:59:58.582Z,18.6
2022-08-08T08:02:35.445Z,18.8
2022-08-08T08:03:54.685Z,18.6
2022-08-08T08:05:55.591Z,18.9
2022-08-08T08:08:00.510Z,18.7
2022-08-08T08:09:54.820Z,18.7
2022-08-08T08:11:59.673Z,19
2022-08-08T08:14:08.481Z,19
2022-08-08T08:16:00.946Z,19
2022-08-08T08:17:58.477Z,18.8
2022-08-08T08:19:58.614Z,18.8
2022-08-08T08:22:02.374Z,18.7
2022-08-08T08:23:55.555Z,18.7
2022-08-08T08:25:59.957Z,18.5
2022-08-08T08:27:56.165Z,18.4
2022-08-08T08:29:57.382Z,18.3
2022-08-08T08:31:58.266Z,18.4
2022-08-08T08:33:57.274Z,18.3
2022-08-08T08:36:18.766Z,18.3
2022-08-08T08:38:17.919Z,18.4
2022-08-08T08:40:01.453Z,18.6
2022-08-08T08:41:59.380Z,18.4
2022-08-08T08:44:13.423Z,18.4
2022-08-08T08:46:03.459Z,18.3
2022-08-08T08:48:01.071Z,18.6
2022-08-08T08:50:00.195Z,18.6
2022-08-08T08:52:02.416Z,18.6
2022-08-08T08:54:05.833Z,18.6
2022-08-08T08:56:02.407Z,18.7
2022-08-08T08:58:03.262Z,18.6
2022-08-08T09:00:05.559Z,18.6
2022-08-08T09:02:04.639Z,18.5
2022-08-08T09:04:10.094Z,18.5
2022-08-08T09:06:03.411Z,18.6
2022-08-08T09:08:12.991Z,18.6
2022-08-08T09:10:17.240Z,18.6
2022-08-08T09:12:08.203Z,18.6
2022-08-08T09:14:06.093Z,18.6
2022-08-08T09:16:07.793Z,18.6
2022-08-08T09:18:06.923Z,18.6
2022-08-08T09:22:01.961Z,18.5
2022-08-08T09:22:07.900Z,18.4
2022-08-08T09:24:07.296Z,18.3
2022-08-08T09:26:12.795Z,18.3
2022-08-08T09:28:06.568Z,18.1
2022-08-08T09:30:10.336Z,18.3
2022-08-08T09:32:14.995Z,18.3
2022-08-08T09:34:31.365Z,18.1
2022-08-08T09:36:18.200Z,18
2022-08-08T09:38:17.916Z,18
2022-08-08T09:40:11.375Z,18.3
2022-08-08T09:42:21.567Z,18.3
2022-08-08T09:44:18.819Z,18.3
2022-08-08T09:46:16.635Z,18.4
2022-08-08T09:48:21.092Z,18.3
2022-08-08T09:50:14.006Z,18.4
2022-08-08T09:52:46.772Z,18.4
2022-08-08T09:54:15.376Z,18.6
2022-08-08T09:56:14.433Z,18.6
2022-08-08T09:58:20.349Z,18.4
2022-08-08T10:00:35.778Z,18.3
2022-08-08T10:02:20.538Z,18.3
2022-08-08T10:04:14.882Z,18.3
2022-08-08T10:06:14.538Z,18.2
2022-08-08T10:08:13.507Z,18.2
2022-08-08T10:10:13.870Z,18.3
2022-08-08T10:12:27.931Z,18.1
2022-08-08T10:14:27.545Z,18.1
2022-08-08T10:16:14.939Z,18.2
2022-08-08T10:18:25.761Z,18.2
2022-08-08T10:20:17.100Z,18.3
2022-08-08T10:22:18.678Z,18.3
2022-08-08T10:24:29.696Z,18.3
2022-08-08T10:26:30.222Z,18.5
2022-08-08T10:28:19.170Z,18.5
2022-08-08T10:31:00.080Z,18.7
2022-08-08T10:32:19.305Z,18.5
2022-08-08T10:34:21.040Z,18.6
2022-08-08T10:36:23.560Z,19
2022-08-08T10:38:19.581Z,19
2022-08-08T10:40:21.020Z,19
2022-08-08T10:42:21.923Z,19.1
2022-08-08T10:44:27.468Z,19.4
2022-08-08T10:46:29.419Z,19.4
2022-08-08T10:48:31.063Z,19.4
2022-08-08T10:50:23.679Z,19.2
2022-08-08T10:52:30.128Z,19.1
2022-08-08T10:54:24.775Z,19.1
2022-08-08T10:56:27.502Z,19.5
2022-08-08T10:58:27.630Z,19.5
2022-08-08T11:00:25.663Z,19.3
2022-08-08T11:02:25.342Z,19.3
2022-08-08T11:04:00.521Z,20
2022-08-08T11:04:07.666Z,20
2022-08-08T11:04:29.964Z,20
2022-08-08T11:06:28.823Z,19.9
2022-08-08T11:08:38.428Z,19.9
2022-08-08T11:10:28.552Z,19.9
2022-08-08T11:12:25.364Z,19.6
2022-08-08T11:14:25.825Z,19.3
2022-08-08T11:16:32.362Z,19.1
2022-08-08T11:18:30.081Z,19.1
2022-08-08T11:20:28.458Z,19.4
2022-08-08T11:22:28.675Z,19.7
2022-08-08T11:24:28.926Z,20
2022-08-08T11:26:29.127Z,20.3
2022-08-08T11:28:32.987Z,20.4
2022-08-08T11:30:31.733Z,20.3
2022-08-08T11:32:30.665Z,20.5
2022-08-08T11:34:52.192Z,20.5
2022-08-08T11:36:31.310Z,20.5
2022-08-08T11:38:35.601Z,20.6
2022-08-08T11:40:31.471Z,19.8
2022-08-08T11:42:32.170Z,19.5
2022-08-08T11:44:31.795Z,19.7
2022-08-08T11:46:32.794Z,19.7
2022-08-08T11:48:32.593Z,19.4
2022-08-08T11:50:33.916Z,19.5
2022-08-08T11:52:34.762Z,19.4
2022-08-08T11:54:38.163Z,19.5
2022-08-08T11:56:35.159Z,19.4
2022-08-08T11:58:34.591Z,19.5
2022-08-08T12:00:43.712Z,19.7
2022-08-08T12:02:45.551Z,19.9
2022-08-08T12:04:46.038Z,19.7
2022-08-08T12:06:35.734Z,19.8
2022-08-08T12:08:37.020Z,19.9
2022-08-08T12:10:47.639Z,20.1
2022-08-08T12:12:41.936Z,20.1
2022-08-08T12:14:37.244Z,19.9
2022-08-08T12:16:49.086Z,20
2022-08-08T12:18:47.621Z,19.9
2022-08-08T12:20:39.215Z,20.1
2022-08-08T12:22:47.861Z,20.1
2022-08-08T12:24:53.907Z,20
2022-08-08T12:26:41.859Z,19.9
2022-08-08T12:28:40.307Z,20
2022-08-08T12:30:41.201Z,20
2022-08-08T12:32:42.430Z,19.7
2022-08-08T12:34:43.127Z,20
2022-08-08T12:36:46.390Z,20.1
2022-08-08T12:38:45.438Z,19.9
2022-08-08T12:40:57.096Z,20.1
2022-08-08T12:42:47.540Z,20.3
2022-08-08T12:44:43.311Z,19.8
2022-08-08T12:46:58.835Z,19.7
2022-08-08T12:49:22.158Z,19.7
2022-08-08T12:50:46.676Z,19.9
2022-08-08T12:52:52.935Z,19.9
2022-08-08T12:54:47.442Z,19.9
2022-08-08T12:56:45.500Z,20.1
2022-08-08T12:58:49.023Z,19.9
2022-08-08T13:00:46.256Z,19.9
2022-08-08T13:02:58.165Z,20
2022-08-08T13:04:50.161Z,20
2022-08-08T13:07:00.541Z,20
2022-08-08T13:08:53.638Z,19.9
2022-08-08T13:10:57.234Z,19.9
2022-08-08T13:12:51.452Z,19.6
2022-08-08T13:14:52.956Z,19.6
2022-08-08T13:16:49.608Z,19.6
2022-08-08T13:18:57.266Z,19.7
2022-08-08T13:20:50.250Z,19.7
2022-08-08T13:22:55.976Z,19.9
2022-08-08T13:24:51.825Z,19.9
2022-08-08T13:26:59.873Z,19.9
2022-08-08T13:28:51.650Z,19.7
2022-08-08T13:30:52.057Z,19.7
2022-08-08T13:32:55.320Z,19.8
2022-08-08T13:34:54.692Z,19.5
2022-08-08T13:36:54.585Z,19.6
2022-08-08T13:38:54.501Z,19.7
2022-08-08T13:40:54.178Z,19.6
2022-08-08T13:42:54.903Z,19.6
2022-08-08T13:44:55.910Z,19.6
2022-08-08T13:46:57.229Z,19.5
2022-08-08T13:49:11.219Z,19.8
2022-08-08T13:51:34.059Z,19.8
2022-08-08T13:52:56.406Z,19.5
2022-08-08T13:54:59.251Z,19.5
2022-08-08T13:57:11.248Z,19.6
2022-08-08T13:58:58.343Z,19.3
2022-08-08T14:00:58.027Z,19.3
2022-08-08T14:02:58.928Z,19.1
2022-08-08T14:05:05.032Z,19.3
2022-08-08T14:07:00.547Z,19.1
2022-08-08T14:08:59.394Z,19
2022-08-08T14:10:59.843Z,19.3
2022-08-08T14:13:01.600Z,19.3
2022-08-08T14:15:00.706Z,19.4
2022-08-08T14:17:02.820Z,19.4
2022-08-08T14:19:02.946Z,19.4
2022-08-08T14:21:03.334Z,19.4
2022-08-08T14:23:10.179Z,19.3
2022-08-08T14:25:07.620Z,19.3
2022-08-08T14:27:07.376Z,19.3
2022-08-08T14:29:06.011Z,19.3
2022-08-08T14:31:09.234Z,19.1
2022-08-08T14:33:03.998Z,19.2
2022-08-08T14:35:06.467Z,19.2
2022-08-08T14:37:05.832Z,19.2
2022-08-08T14:39:11.757Z,19.2
2022-08-08T14:41:17.671Z,19.3
2022-08-08T14:43:31.346Z,19.1
2022-08-08T14:45:10.027Z,18.9
2022-08-08T14:47:21.052Z,18.7
2022-08-08T14:49:20.525Z,18.7
2022-08-08T14:51:07.598Z,18.7
2022-08-08T14:53:13.673Z,18.6
2022-08-08T14:55:08.533Z,18.6
2022-08-08T14:57:08.386Z,18.5
2022-08-08T14:59:22.593Z,18.7
2022-08-08T15:01:23.570Z,18.9
2022-08-08T15:03:15.836Z,19
2022-08-08T15:05:11.662Z,19
2022-08-08T15:07:24.266Z,18.8
2022-08-08T15:09:10.359Z,18.8
2022-08-08T15:11:10.739Z,18.8
2022-08-08T15:13:12.000Z,18.8
2022-08-08T15:15:18.862Z,19
2022-08-08T15:17:11.996Z,18.6
2022-08-08T15:19:14.977Z,18.7
2022-08-08T15:21:12.584Z,18.8
2022-08-08T15:23:16.376Z,18.8
2022-08-08T15:25:17.705Z,18.8
2022-08-08T15:27:57.974Z,18.7
2022-08-08T15:29:13.962Z,18.7
2022-08-08T15:31:26.150Z,18.7
2022-08-08T15:33:35.073Z,18.7
2022-08-08T15:35:16.179Z,18.6
2022-08-08T15:37:15.336Z,18.5
2022-08-08T15:39:15.781Z,18.6
2022-08-08T15:41:16.083Z,18.5
2022-08-08T15:43:35.073Z,18.5
2022-08-08T15:45:16.816Z,18.5
2022-08-08T15:47:18.884Z,18.5
2022-08-08T15:49:17.861Z,18.5
2022-08-08T15:51:17.825Z,18.5
2022-08-08T15:53:18.177Z,18.5
2022-08-08T15:55:18.515Z,18.3
2022-08-08T15:57:20.712Z,18.4
2022-08-08T15:59:19.160Z,18.4
2022-08-08T16:01:21.109Z,18.4
2022-08-08T16:03:19.929Z,18.4
2022-08-08T16:05:20.553Z,18.2
2022-08-08T16:07:20.696Z,18.3
2022-08-08T16:13:04.327Z,18.3
2022-08-08T16:13:15.849Z,18.3
2022-08-08T16:13:21.717Z,18.1
2022-08-08T16:15:21.967Z,18.1
2022-08-08T16:17:58.071Z,18.1
2022-08-08T16:19:24.227Z,18.1
2022-08-08T16:21:26.380Z,18.1
2022-08-08T16:23:23.461Z,18.1
2022-08-08T16:25:29.924Z,17.9
2022-08-08T16:27:23.900Z,17.9
2022-08-08T16:29:37.406Z,17.8
2022-08-08T16:31:24.528Z,17.8
2022-08-08T16:33:38.007Z,17.8
2022-08-08T16:35:25.239Z,18
2022-08-08T16:37:27.897Z,17.8
2022-08-08T16:39:54.939Z,17.8
2022-08-08T16:41:26.205Z,17.8
2022-08-08T16:43:26.479Z,17.8
2022-08-08T16:46:36.690Z,17.7
2022-08-08T16:47:40.344Z,17.7
2022-08-08T16:49:38.478Z,17.7
2022-08-08T16:55:05.803Z,17.7
2022-08-08T16:55:06.467Z,17.7
2022-08-08T16:55:54.376Z,17.7
2022-08-08T16:58:13.840Z,17.7
2022-08-08T16:59:40.397Z,17.5
2022-08-08T17:01:31.012Z,17.5
2022-08-08T17:03:58.711Z,17.5
2022-08-08T17:05:42.470Z,17.5
2022-08-08T17:07:30.515Z,17.5
2022-08-08T17:09:35.077Z,17.5
2022-08-08T17:11:39.422Z,17.4
2022-08-08T17:13:40.965Z,17.4
2022-08-08T17:15:34.687Z,17.4
2022-08-08T17:17:41.821Z,17.3
2022-08-08T17:19:37.410Z,17.3
2022-08-08T17:21:36.570Z,17.3
2022-08-08T17:24:00.066Z,17.3
2022-08-08T17:25:47.727Z,17.3
2022-08-08T17:27:46.337Z,17.1
2022-08-08T17:29:36.345Z,17.1
2022-08-08T17:31:44.282Z,17
2022-08-08T17:34:53.488Z,17
2022-08-08T17:35:53.972Z,17
2022-08-08T17:37:35.272Z,17.1
2022-08-08T17:40:03.211Z,17.1
2022-08-08T17:41:38.607Z,16.9
2022-08-08T17:44:01.660Z,16.8
2022-08-08T17:45:36.612Z,16.8
2022-08-08T17:47:40.267Z,16.8
2022-08-08T17:49:42.852Z,16.8
2022-08-08T17:51:38.858Z,16.8
2022-08-08T17:53:43.692Z,16.7
2022-08-08T17:56:05.884Z,16.7
2022-08-08T17:57:39.496Z,16.7
2022-08-08T17:59:45.528Z,16.7
2022-08-08T18:01:51.469Z,16.7
2022-08-08T18:03:39.360Z,16.7
2022-08-08T18:05:49.442Z,16.7
2022-08-08T18:08:01.823Z,16.7
2022-08-08T18:09:40.221Z,16.5
2022-08-08T18:11:43.090Z,16.5
2022-08-08T18:13:41.402Z,16.5
2022-08-08T18:15:41.197Z,16.5
2022-08-08T18:18:05.076Z,16.5
2022-08-08T18:19:45.636Z,16.5
2022-08-08T18:22:01.407Z,16.5
2022-08-08T18:23:42.283Z,16.5
2022-08-08T18:25:42.614Z,16.4
2022-08-08T18:27:43.317Z,16.4
2022-08-08T18:29:43.207Z,16.4
2022-08-08T18:31:43.522Z,16.4
2022-08-08T18:34:12.381Z,16.4
2022-08-08T18:35:48.321Z,16.2
2022-08-08T18:37:48.465Z,16.2
2022-08-08T18:39:44.834Z,16.2
2022-08-08T18:41:51.048Z,16.1
2022-08-08T18:43:45.389Z,16.1
2022-08-08T18:46:54.149Z,16.1
2022-08-08T18:47:46.040Z,16.1
2022-08-08T18:49:57.462Z,16.1
2022-08-08T18:51:52.605Z,16
2022-08-08T18:54:00.933Z,16
2022-08-08T18:55:47.350Z,16
2022-08-08T18:57:47.493Z,16
2022-08-08T18:59:50.285Z,16
2022-08-08T19:02:25.965Z,16
2022-08-08T19:04:09.847Z,16
2022-08-08T19:05:51.640Z,16
2022-08-08T19:07:52.583Z,15.9
2022-08-08T19:10:15.467Z,15.9
2022-08-08T19:11:49.547Z,15.9
2022-08-08T19:13:56.712Z,15.8
2022-08-08T19:15:51.843Z,15.7
2022-08-08T19:18:30.816Z,15.7
2022-08-08T19:20:02.563Z,15.7
2022-08-08T19:21:51.023Z,15.7
2022-08-08T19:23:51.486Z,15.7
2022-08-08T19:26:19.716Z,15.7
2022-08-08T19:27:53.172Z,15.7
2022-08-08T19:29:52.456Z,15.7
2022-08-08T19:31:52.472Z,15.7
2022-08-08T19:34:04.851Z,15.7
2022-08-08T19:36:08.978Z,15.7
2022-08-08T19:37:57.551Z,15.8
2022-08-08T19:39:53.678Z,15.8
2022-08-08T19:41:53.873Z,15.8
2022-08-08T19:44:02.346Z,15.8
2022-08-08T19:45:59.738Z,15.8
2022-08-08T19:47:54.734Z,15.6
2022-08-08T19:50:00.274Z,15.6
2022-08-08T19:51:55.259Z,15.6
2022-08-08T19:53:55.480Z,15.6
2022-08-08T19:55:55.763Z,15.6
2022-08-08T19:57:56.055Z,15.6
2022-08-08T19:59:56.573Z,15.6
2022-08-08T20:02:03.215Z,15.6
2022-08-08T20:04:01.103Z,15.6
2022-08-08T20:06:13.895Z,15.6
2022-08-08T20:08:28.580Z,15.7
2022-08-08T20:09:58.794Z,15.7
2022-08-08T20:11:57.874Z,15.7
2022-08-08T20:14:31.727Z,15.7
2022-08-08T20:16:00.152Z,15.7
2022-08-08T20:17:58.731Z,15.6
2022-08-08T20:19:58.922Z,15.6
2022-08-08T20:22:02.892Z,15.6
2022-08-08T20:23:59.529Z,15.6
2022-08-08T20:25:59.889Z,15.6
2022-08-08T20:28:05.734Z,15.6
2022-08-08T20:30:01.447Z,15.6
2022-08-08T20:32:07.104Z,15.6
2022-08-08T20:34:27.822Z,15.6
2022-08-08T20:36:08.494Z,15.6
2022-08-08T20:38:01.394Z,15.5
2022-08-08T20:40:01.821Z,15.4
2022-08-08T20:42:01.935Z,15.4
2022-08-08T20:44:02.342Z,15.4
2022-08-08T20:46:03.950Z,15.3
2022-08-08T20:48:03.172Z,15.3
2022-08-08T20:50:04.139Z,15.3
2022-08-08T20:52:03.813Z,15.3
2022-08-08T20:54:10.426Z,15.3
2022-08-08T20:56:04.383Z,15.3
2022-08-08T20:58:03.981Z,15.3
2022-08-08T21:00:05.750Z,15.3
2022-08-08T21:02:05.975Z,15.3
2022-08-08T21:04:04.761Z,15.3
2022-08-08T21:06:07.426Z,15.5
2022-08-08T21:08:36.081Z,15.5
2022-08-08T21:10:12.257Z,15.5
2022-08-08T21:12:09.066Z,15.5
2022-08-08T21:14:07.641Z,15.5
2022-08-08T21:16:17.713Z,15.6
2022-08-08T21:18:06.630Z,15.6
2022-08-08T21:20:08.088Z,15.6
2022-08-08T21:22:07.227Z,15.6
2022-08-08T21:24:22.322Z,15.6
2022-08-08T21:26:08.670Z,15.6
2022-08-08T21:28:16.006Z,15.6
2022-08-08T21:30:18.713Z,15.6
2022-08-08T21:32:19.060Z,15.6
2022-08-08T21:34:08.856Z,15.7
2022-08-08T21:36:18.311Z,15.6
2022-08-08T21:38:16.434Z,15.5
2022-08-08T21:40:11.345Z,15.5
2022-08-08T21:42:09.945Z,15.5
2022-08-08T21:44:11.204Z,15.5
2022-08-08T21:48:00.160Z,15.5
2022-08-08T21:48:19.737Z,15.4
2022-08-08T21:50:11.437Z,15.4
2022-08-08T21:54:27.175Z,15.4
2022-08-08T21:54:30.773Z,15.4
2022-08-08T21:56:25.961Z,15.4
2022-08-08T21:58:13.607Z,15.4
2022-08-08T22:00:14.739Z,15.4
2022-08-08T22:02:12.719Z,15.4
2022-08-08T22:04:13.011Z,15.4
2022-08-08T22:06:13.148Z,15.4
2022-08-08T22:08:13.457Z,15.4
2022-08-08T22:10:18.662Z,15.4
2022-08-08T22:12:16.681Z,15.4
2022-08-08T22:14:14.188Z,15.4
2022-08-08T22:16:15.277Z,15.4
2022-08-08T22:18:14.802Z,15.4
2022-08-08T22:20:23.368Z,15.4
2022-08-08T22:22:15.422Z,15.4
2022-08-08T22:24:15.772Z,15.3
2022-08-08T22:26:27.337Z,15.2
2022-08-08T22:29:12.843Z,15.2
2022-08-08T22:30:16.415Z,15.2
2022-08-08T22:32:18.255Z,15.2
2022-08-08T22:34:16.844Z,15.2
2022-08-08T22:36:17.197Z,15.3
2022-08-08T22:38:18.008Z,15.4
2022-08-08T22:40:17.711Z,15.4
2022-08-08T22:42:26.943Z,15.4
2022-08-08T22:44:18.339Z,15.4
2022-08-08T22:46:18.451Z,15.3
2022-08-08T22:48:18.902Z,15.3
2022-08-08T22:50:26.177Z,15.3
2022-08-08T22:52:19.329Z,15.3
2022-08-08T22:54:30.360Z,15.3
2022-08-08T22:56:20.130Z,15.4
2022-08-08T22:58:20.172Z,15.4
2022-08-08T23:00:21.211Z,15.4
2022-08-08T23:02:20.796Z,15.4
2022-08-08T23:04:32.024Z,15.4
2022-08-08T23:06:21.361Z,15.4
2022-08-08T23:08:21.618Z,15.4
2022-08-08T23:10:25.216Z,15.4
2022-08-08T23:12:39.868Z,15.4
2022-08-08T23:14:22.444Z,15.2
2022-08-08T23:16:41.311Z,15.3
2022-08-08T23:18:22.997Z,15.2
2022-08-08T23:20:27.320Z,15.2
2022-08-08T23:22:23.567Z,15.2
2022-08-08T23:24:23.850Z,15.2
2022-08-08T23:26:24.145Z,15.3
2022-08-08T23:28:24.447Z,15.4
2022-08-08T23:30:24.681Z,15.4
2022-08-08T23:32:24.963Z,15.3
2022-08-08T23:34:25.205Z,15.3
2022-08-08T23:36:26.263Z,15.4
2022-08-08T23:38:25.789Z,15.5
2022-08-08T23:40:26.214Z,15.4
2022-08-08T23:42:26.418Z,15.2
2022-08-08T23:44:28.457Z,15.4
2022-08-08T23:49:01.626Z,15.5
2022-08-08T23:49:03.469Z,15.5
2022-08-08T23:50:30.008Z,15.5
2022-08-08T23:52:27.727Z,15.5
2022-08-08T23:54:41.535Z,15.5
2022-08-08T23:56:32.415Z,15.5
2022-08-08T23:58:37.664Z,15.5
